createdAt,value
2023-01-12T00:03:22.861Z,98054.78
2023-01-12T00:08:26.363Z,98051.69
2023-01-12T00:13:31.281Z,98046.34
2023-01-12T00:18:34.733Z,98039.56
2023-01-12T00:23:38.891Z,98039.38
2023-01-12T00:28:42.257Z,98024.59
2023-01-12T00:33:45.493Z,98024.00
2023-01-12T00:38:48.421Z,98003.03
2023-01-12T00:43:51.857Z,98001.81
2023-01-12T00:48:55.393Z,98000.13
2023-01-12T00:53:58.691Z,97994.19
2023-01-12T00:59:02.201Z,97992.31
2023-01-12T01:04:05.735Z,97988.63
2023-01-12T01:09:09.568Z,97992.31
2023-01-12T01:14:13.210Z,97980.97
2023-01-12T01:19:17.153Z,97976.84
2023-01-12T01:24:20.500Z,97969.66
2023-01-12T01:29:23.622Z,97976.00
2023-01-12T01:34:27.053Z,97978.66
2023-01-12T01:39:30.700Z,97970.81
2023-01-12T01:44:34.025Z,97962.41
2023-01-12T01:49:40.245Z,97952.97
2023-01-12T01:54:58.422Z,97956.88
2023-01-12T02:00:03.725Z,97942.50
2023-01-12T02:05:09.517Z,97957.91
2023-01-12T02:10:13.277Z,97955.44
2023-01-12T02:15:16.747Z,97953.81
2023-01-12T02:20:37.246Z,97951.53
2023-01-12T02:26:18.289Z,97948.63
2023-01-12T02:31:57.274Z,97953.38
2023-01-12T02:37:21.730Z,97946.81
2023-01-12T02:42:46.930Z,97945.81
2023-01-12T02:47:59.184Z,97946.44
2023-01-12T02:53:09.660Z,97956.06
2023-01-12T02:58:16.941Z,97954.88
2023-01-12T03:03:21.230Z,97966.16
2023-01-12T03:08:27.159Z,97956.50
2023-01-12T03:13:33.678Z,97966.50
2023-01-12T03:18:51.484Z,97961.97
2023-01-12T03:24:08.905Z,97966.25
2023-01-12T03:29:12.325Z,97973.84
2023-01-12T03:34:19.225Z,97964.81
2023-01-12T03:39:50.555Z,97963.38
2023-01-12T03:45:14.260Z,97965.44
2023-01-12T03:50:23.833Z,97969.56
2023-01-12T03:55:29.703Z,97972.84
2023-01-12T04:00:33.298Z,97962.38
2023-01-12T04:05:37.523Z,97975.28
2023-01-12T04:10:41.514Z,97969.13
2023-01-12T04:15:47.719Z,97982.66
2023-01-12T04:20:52.096Z,97976.50
2023-01-12T04:25:55.494Z,97981.63
2023-01-12T04:30:58.658Z,97993.94
2023-01-12T04:36:02.222Z,97991.09
2023-01-12T04:41:06.341Z,97983.09
2023-01-12T04:46:10.980Z,97980.03
2023-01-12T04:51:14.277Z,97972.66
2023-01-12T04:56:17.854Z,97988.66
2023-01-12T05:01:21.344Z,97985.16
2023-01-12T05:06:25.056Z,97998.72
2023-01-12T05:11:29.576Z,98012.28
2023-01-12T05:16:33.047Z,98005.94
2023-01-12T05:21:39.554Z,98001.00
2023-01-12T05:26:44.668Z,98021.94
2023-01-12T05:31:47.971Z,98008.41
2023-01-12T05:36:52.814Z,98013.56
2023-01-12T05:41:56.397Z,98003.25
2023-01-12T05:46:59.995Z,98007.78
2023-01-12T05:52:03.433Z,98013.72
2023-01-12T05:57:06.850Z,98013.97
2023-01-12T06:02:11.782Z,98013.13
2023-01-12T06:07:16.551Z,98015.41
2023-01-12T06:12:20.379Z,98012.13
2023-01-12T06:17:23.799Z,98012.34
2023-01-12T06:22:27.049Z,98004.94
2023-01-12T06:27:32.389Z,98013.59
2023-01-12T06:32:36.202Z,98020.19
2023-01-12T06:37:39.956Z,98015.66
2023-01-12T06:42:43.522Z,98009.28
2023-01-12T06:47:50.031Z,98022.66
2023-01-12T06:52:53.390Z,98007.84
2023-01-12T06:57:56.650Z,98017.91
2023-01-12T07:03:00.291Z,98011.19
2023-01-12T07:08:04.421Z,98011.19
2023-01-12T07:13:08.071Z,98015.28
2023-01-12T07:18:11.692Z,98015.88
2023-01-12T07:23:15.275Z,98024.75
2023-01-12T07:28:19.592Z,98022.31
2023-01-12T07:33:23.071Z,98033.66
2023-01-12T07:38:27.711Z,98025.41
2023-01-12T07:43:31.761Z,98025.19
2023-01-12T07:48:35.136Z,98029.94
2023-01-12T07:53:38.768Z,98026.88
2023-01-12T07:58:43.705Z,98018.63
2023-01-12T08:03:48.291Z,98013.50
2023-01-12T08:08:54.244Z,98000.13
2023-01-12T08:13:58.658Z,98011.59
2023-01-12T08:19:08.387Z,98001.31
2023-01-12T08:24:17.829Z,97993.44
2023-01-12T08:29:44.220Z,97991.75
2023-01-12T08:34:51.573Z,97976.69
2023-01-12T08:39:55.598Z,97961.41
2023-01-12T08:44:59.158Z,97953.91
2023-01-12T08:50:04.525Z,97940.50
2023-01-12T08:55:10.098Z,97931.38
2023-01-12T09:00:14.134Z,97905.88
2023-01-12T09:05:20.599Z,97888.59
2023-01-12T09:10:24.874Z,97875.22
2023-01-12T09:15:28.657Z,97863.22
2023-01-12T09:20:32.253Z,97857.56
2023-01-12T09:25:35.719Z,97848.50
2023-01-12T09:30:38.893Z,97828.00
2023-01-12T09:35:42.067Z,97828.00
2023-01-12T09:40:45.481Z,97816.00
2023-01-12T09:45:48.943Z,97820.94
2023-01-12T09:51:10.489Z,97815.19
2023-01-12T09:56:45.674Z,97814.66
2023-01-12T10:01:53.765Z,97807.91
2023-01-12T10:06:57.280Z,97796.44
2023-01-12T10:12:19.787Z,97795.72
2023-01-12T10:17:23.604Z,97799.72
2023-01-12T10:22:31.249Z,97812.72
2023-01-12T10:27:41.164Z,97823.00
2023-01-12T10:32:45.018Z,97825.41
2023-01-12T10:37:55.074Z,97814.13
2023-01-12T10:43:06.681Z,97801.28
2023-01-12T10:48:20.861Z,97803.41
2023-01-12T10:53:48.028Z,97803.78
2023-01-12T10:59:02.465Z,97818.03
2023-01-12T11:04:06.051Z,97817.31
2023-01-12T11:09:40.705Z,97824.88
2023-01-12T11:15:02.202Z,97842.16
2023-01-12T11:20:18.699Z,97865.78
2023-01-12T11:25:25.049Z,97880.09
2023-01-12T11:30:40.616Z,97867.66
2023-01-12T11:36:06.826Z,97857.38
2023-01-12T11:41:21.987Z,97865.97
2023-01-12T11:46:48.446Z,97878.69
2023-01-12T11:51:56.734Z,97843.78
2023-01-12T11:57:40.378Z,97857.94
2023-01-12T12:02:59.058Z,97871.28
2023-01-12T12:08:35.554Z,97854.88
2023-01-12T12:14:11.754Z,97852.22
2023-01-12T12:19:39.971Z,97843.41
2023-01-12T12:25:05.887Z,97843.22
2023-01-12T12:30:34.677Z,97824.38
2023-01-12T12:35:41.552Z,97829.06
2023-01-12T12:40:55.078Z,97813.47
2023-01-12T12:46:19.573Z,97813.00
2023-01-12T12:51:24.322Z,97833.41
2023-01-12T12:56:29.805Z,97817.63
2023-01-12T13:01:34.512Z,97807.34
2023-01-12T13:06:48.710Z,97785.25
2023-01-12T13:11:52.154Z,97782.44
2023-01-12T13:17:00.267Z,97780.16
2023-01-12T13:22:40.909Z,97776.19
2023-01-12T13:27:52.077Z,97775.84
2023-01-12T13:32:55.494Z,97778.53
2023-01-12T13:38:04.038Z,97759.47
2023-01-12T13:43:34.934Z,97746.81
2023-01-12T13:48:44.111Z,97763.44
2023-01-12T13:54:05.235Z,97828.78
2023-01-12T13:59:18.090Z,97824.06
2023-01-12T14:04:48.579Z,97835.81
2023-01-12T14:10:01.180Z,97841.03
2023-01-12T14:15:25.560Z,97849.44
2023-01-12T14:20:30.613Z,97855.56
2023-01-12T14:25:34.011Z,97885.31
2023-01-12T14:30:46.309Z,97867.28
2023-01-12T14:35:52.753Z,97885.34
2023-01-12T14:41:20.969Z,97879.41
2023-01-12T14:46:30.142Z,97884.72
2023-01-12T14:51:35.552Z,97887.38
2023-01-12T14:56:50.067Z,97892.50
2023-01-12T15:01:53.771Z,97905.63
2023-01-12T15:07:04.006Z,97903.59
2023-01-12T15:12:42.028Z,97913.16
2023-01-12T15:17:46.248Z,97908.56
2023-01-12T15:22:50.471Z,97913.53
2023-01-12T15:27:54.074Z,97925.88
2023-01-12T15:33:00.057Z,97926.16
2023-01-12T15:38:05.388Z,97929.34
2023-01-12T15:43:17.197Z,97921.06
2023-01-12T15:48:20.959Z,97924.22
2023-01-12T15:53:24.727Z,97928.94
2023-01-12T15:58:28.158Z,97928.78
2023-01-12T16:03:57.611Z,97929.44
2023-01-12T16:08:55.500Z,97923.25
2023-01-12T16:13:59.687Z,97907.47
2023-01-12T16:19:03.654Z,97918.63
2023-01-12T16:24:07.293Z,97922.81
2023-01-12T16:29:11.119Z,97923.44
2023-01-12T16:34:14.691Z,97926.34
2023-01-12T16:39:19.592Z,97920.81
2023-01-12T16:44:24.429Z,97918.78
2023-01-12T16:49:27.937Z,97907.91
2023-01-12T16:54:32.327Z,97926.16
2023-01-12T16:59:40.991Z,97938.28
2023-01-12T17:04:46.284Z,97945.03
2023-01-12T17:09:49.897Z,97945.44
2023-01-12T17:14:56.747Z,97961.00
2023-01-12T17:20:01.263Z,97954.22
2023-01-12T17:25:07.618Z,97952.16
2023-01-12T17:30:11.696Z,97951.69
2023-01-12T17:35:16.712Z,97942.06
2023-01-12T17:40:22.468Z,97939.81
2023-01-12T17:45:28.202Z,97918.47
2023-01-12T17:50:32.340Z,97924.75
2023-01-12T17:55:47.607Z,97913.69
2023-01-12T18:00:52.309Z,97917.34
2023-01-12T18:06:03.102Z,97919.56
2023-01-12T18:11:09.313Z,97916.09
2023-01-12T18:16:16.631Z,97922.88
2023-01-12T18:21:27.501Z,97910.81
2023-01-12T18:26:33.491Z,97926.16
2023-01-12T18:31:37.371Z,97909.22
2023-01-12T18:36:42.055Z,97906.56
2023-01-12T18:41:46.407Z,97909.09
2023-01-12T18:46:50.152Z,97902.81
2023-01-12T18:51:53.894Z,97903.56
2023-01-12T18:56:57.474Z,97887.34
2023-01-12T19:02:03.629Z,97881.53
2023-01-12T19:07:11.439Z,97898.03
2023-01-12T19:12:14.959Z,97912.41
2023-01-12T19:17:19.254Z,97917.44
2023-01-12T19:22:22.792Z,97921.97
2023-01-12T19:27:26.552Z,97921.03
2023-01-12T19:32:31.561Z,97917.75
2023-01-12T19:37:34.978Z,97900.91
2023-01-12T19:42:38.359Z,97915.50
2023-01-12T19:47:44.944Z,97900.00
2023-01-12T19:52:48.383Z,97899.88
2023-01-12T19:57:53.266Z,97905.06
2023-01-12T20:02:58.433Z,97893.63
2023-01-12T20:08:02.444Z,97894.66
2023-01-12T20:13:06.591Z,97888.53
2023-01-12T20:18:09.869Z,97877.66
2023-01-12T20:23:15.113Z,97888.31
2023-01-12T20:28:18.595Z,97901.50
2023-01-12T20:33:22.981Z,97899.09
2023-01-12T20:38:26.623Z,97894.97
2023-01-12T20:43:30.087Z,97894.38
2023-01-12T20:48:34.478Z,97900.78
2023-01-12T20:53:43.105Z,97898.31
2023-01-12T20:58:52.713Z,97893.41
2023-01-12T21:04:00.451Z,97893.00
2023-01-12T21:09:05.393Z,97891.34
2023-01-12T21:14:10.333Z,97879.84
2023-01-12T21:19:13.923Z,97868.56
2023-01-12T21:24:17.399Z,97873.09
2023-01-12T21:29:21.770Z,97866.75
2023-01-12T21:34:25.291Z,97866.16
2023-01-12T21:39:28.673Z,97872.91
2023-01-12T21:44:33.351Z,97885.03
2023-01-12T21:49:36.497Z,97887.50
2023-01-12T21:54:39.722Z,97873.31
2023-01-12T21:59:43.212Z,97869.41
2023-01-12T22:04:47.103Z,97858.53
2023-01-12T22:09:51.543Z,97847.47
2023-01-12T22:14:55.126Z,97857.91
2023-01-12T22:19:58.810Z,97850.13
2023-01-12T22:25:02.266Z,97847.03
2023-01-12T22:30:06.661Z,97851.38
2023-01-12T22:35:11.006Z,97847.25
2023-01-12T22:40:15.078Z,97849.50
2023-01-12T22:45:19.068Z,97861.81
2023-01-12T22:50:24.132Z,97883.97
2023-01-12T22:55:27.698Z,97955.34
2023-01-12T23:00:30.795Z,97947.94
2023-01-12T23:05:36.820Z,97943.66
2023-01-12T23:10:40.922Z,97931.34
2023-01-12T23:15:50.511Z,97928.88
2023-01-12T23:20:55.012Z,97916.56
2023-01-12T23:26:06.630Z,97915.16
2023-01-12T23:31:16.196Z,97906.09
2023-01-12T23:36:22.102Z,97905.66
2023-01-12T23:41:27.131Z,97911.00
2023-01-12T23:46:33.696Z,97898.91
2023-01-12T23:51:37.031Z,97895.41
2023-01-12T23:56:40.195Z,97880.22
